createdAt,value
2023-04-15T00:00:59.884Z,3.05
2023-04-15T00:03:27.003Z,2.97
2023-04-15T00:05:53.953Z,1.38
2023-04-15T00:08:20.655Z,1.42
2023-04-15T00:10:47.235Z,1.60
2023-04-15T00:13:13.845Z,2.03
2023-04-15T00:15:41.016Z,1.63
2023-04-15T00:18:08.316Z,2.30
2023-04-15T00:20:35.864Z,1.63
2023-04-15T00:23:04.299Z,2.10
2023-04-15T00:25:31.223Z,1.70
2023-04-15T00:27:57.847Z,1.60
2023-04-15T00:30:25.761Z,1.75
2023-04-15T00:32:52.725Z,2.05
2023-04-15T00:35:19.419Z,2.65
2023-04-15T00:37:46.302Z,1.65
2023-04-15T00:40:13.985Z,1.25
2023-04-15T00:42:41.284Z,1.70
2023-04-15T00:45:08.984Z,1.88
2023-04-15T00:47:37.879Z,1.42
2023-04-15T00:50:05.167Z,1.35
2023-04-15T00:52:32.109Z,1.23
2023-04-15T00:54:59.575Z,1.67
2023-04-15T00:57:27.266Z,2.25
2023-04-15T00:59:54.452Z,1.80
2023-04-15T01:02:21.529Z,1.38
2023-04-15T01:04:48.586Z,1.75
2023-04-15T01:07:15.347Z,1.65
2023-04-15T01:09:42.497Z,1.80
2023-04-15T01:12:12.792Z,1.60
2023-04-15T01:14:39.480Z,1.85
2023-04-15T01:17:06.108Z,1.40
2023-04-15T01:19:32.882Z,1.40
2023-04-15T01:21:59.547Z,1.23
2023-04-15T01:24:27.924Z,1.35
2023-04-15T01:26:54.552Z,1.10
2023-04-15T01:29:21.534Z,1.20
2023-04-15T01:31:52.348Z,1.70
2023-04-15T01:34:19.616Z,1.38
2023-04-15T01:36:46.443Z,1.48
2023-04-15T01:39:13.458Z,1.33
2023-04-15T01:41:40.936Z,1.40
2023-04-15T01:44:08.136Z,1.58
2023-04-15T01:46:35.877Z,1.40
2023-04-15T01:49:02.827Z,1.42
2023-04-15T01:51:29.557Z,1.35
2023-04-15T01:53:59.229Z,1.20
2023-04-15T01:56:26.691Z,1.42
2023-04-15T01:58:53.570Z,1.42
2023-04-15T02:01:20.914Z,1.40
2023-04-15T02:03:48.117Z,1.63
2023-04-15T02:06:15.402Z,1.45
2023-04-15T02:08:42.092Z,1.20
2023-04-15T02:11:09.391Z,1.45
2023-04-15T02:13:36.329Z,1.20
2023-04-15T02:16:04.437Z,1.30
2023-04-15T02:18:31.098Z,1.33
2023-04-15T02:20:58.679Z,1.70
2023-04-15T02:23:25.685Z,1.27
2023-04-15T02:25:53.380Z,1.45
2023-04-15T02:28:21.835Z,1.33
2023-04-15T02:30:52.901Z,1.20
2023-04-15T02:33:20.250Z,1.02
2023-04-15T02:35:47.379Z,0.90
2023-04-15T02:38:14.929Z,1.15
2023-04-15T02:40:41.610Z,1.10
2023-04-15T02:43:08.289Z,0.98
2023-04-15T02:45:35.028Z,1.13
2023-04-15T02:48:06.242Z,1.08
2023-04-15T02:50:33.512Z,1.10
2023-04-15T02:53:01.568Z,1.10
2023-04-15T02:55:29.083Z,1.00
2023-04-15T02:57:55.969Z,0.90
2023-04-15T03:00:25.400Z,0.85
2023-04-15T03:02:56.700Z,1.00
2023-04-15T03:05:26.562Z,1.27
2023-04-15T03:07:53.620Z,1.17
2023-04-15T03:10:21.374Z,0.98
2023-04-15T03:12:48.352Z,0.95
2023-04-15T03:15:15.129Z,1.02
2023-04-15T03:17:41.781Z,1.00
2023-04-15T03:20:08.844Z,1.00
2023-04-15T03:22:35.524Z,1.17
2023-04-15T03:25:02.191Z,1.13
2023-04-15T03:27:28.832Z,1.02
2023-04-15T03:29:56.878Z,1.00
2023-04-15T03:32:23.583Z,1.13
2023-04-15T03:34:50.357Z,1.05
2023-04-15T03:37:16.984Z,1.10
2023-04-15T03:39:43.543Z,1.10
2023-04-15T03:42:10.148Z,1.02
2023-04-15T03:44:37.245Z,1.05
2023-04-15T03:47:03.951Z,1.20
2023-04-15T03:49:30.556Z,1.23
2023-04-15T03:51:57.502Z,0.93
2023-04-15T03:54:24.153Z,1.25
2023-04-15T03:56:50.822Z,1.15
2023-04-15T03:59:17.435Z,1.52
2023-04-15T04:01:44.103Z,2.42
2023-04-15T04:04:11.124Z,1.35
2023-04-15T04:06:37.855Z,2.10
2023-04-15T04:09:04.430Z,2.10
2023-04-15T04:11:31.810Z,2.17
2023-04-15T04:13:58.600Z,2.45
2023-04-15T04:16:25.520Z,2.53
2023-04-15T04:18:52.122Z,2.50
2023-04-15T04:21:18.910Z,1.60
2023-04-15T04:23:45.594Z,2.25
2023-04-15T04:26:12.197Z,2.50
2023-04-15T04:28:40.642Z,2.45
2023-04-15T04:31:07.764Z,3.00
2023-04-15T04:33:34.579Z,1.88
2023-04-15T04:36:01.531Z,2.58
2023-04-15T04:38:28.179Z,2.40
2023-04-15T04:40:54.853Z,2.72
2023-04-15T04:43:21.503Z,3.00
2023-04-15T04:45:48.143Z,2.45
2023-04-15T04:48:14.819Z,2.38
2023-04-15T04:50:41.997Z,3.65
2023-04-15T04:53:09.022Z,3.03
2023-04-15T04:55:37.136Z,2.50
2023-04-15T04:58:03.781Z,4.70
2023-04-15T05:00:30.474Z,4.35
2023-04-15T05:02:57.380Z,3.92
2023-04-15T05:05:24.180Z,5.03
2023-04-15T05:07:51.278Z,4.88
2023-04-15T05:10:18.365Z,5.68
2023-04-15T05:12:45.062Z,6.63
2023-04-15T05:15:12.308Z,6.00
2023-04-15T05:17:39.023Z,5.13
2023-04-15T05:20:06.301Z,6.95
2023-04-15T05:22:33.185Z,4.68
2023-04-15T05:24:59.927Z,4.70
2023-04-15T05:27:26.634Z,4.90
2023-04-15T05:29:53.248Z,5.68
2023-04-15T05:32:19.939Z,6.07
2023-04-15T05:34:47.256Z,6.35
2023-04-15T05:37:13.963Z,4.15
2023-04-15T05:39:40.560Z,5.93
2023-04-15T05:42:07.677Z,6.25
2023-04-15T05:44:34.710Z,5.97
2023-04-15T05:47:01.592Z,3.95
2023-04-15T05:49:28.246Z,5.03
2023-04-15T05:51:54.859Z,3.08
2023-04-15T05:54:22.648Z,5.07
2023-04-15T05:56:49.474Z,4.35
2023-04-15T05:59:16.136Z,4.40
2023-04-15T06:01:43.019Z,3.75
2023-04-15T06:04:09.928Z,4.57
2023-04-15T06:06:36.640Z,4.18
2023-04-15T06:09:03.370Z,3.65
2023-04-15T06:11:30.523Z,2.85
2023-04-15T06:13:57.340Z,3.03
2023-04-15T06:16:23.990Z,2.85
2023-04-15T06:18:50.577Z,3.38
2023-04-15T06:21:17.246Z,3.50
2023-04-15T06:23:43.981Z,4.32
2023-04-15T06:26:10.589Z,3.80
2023-04-15T06:28:37.220Z,3.50
2023-04-15T06:31:03.984Z,3.13
2023-04-15T06:33:30.700Z,3.63
2023-04-15T06:35:57.268Z,2.67
2023-04-15T06:38:23.958Z,2.53
2023-04-15T06:40:51.067Z,2.25
2023-04-15T06:43:17.637Z,2.72
2023-04-15T06:45:44.652Z,2.88
2023-04-15T06:48:11.813Z,3.10
2023-04-15T06:50:38.478Z,1.67
2023-04-15T06:53:05.088Z,1.88
2023-04-15T06:55:32.364Z,1.98
2023-04-15T06:57:58.964Z,1.63
2023-04-15T07:00:25.644Z,1.58
2023-04-15T07:02:52.843Z,1.48
2023-04-15T07:05:20.187Z,1.98
2023-04-15T07:07:46.924Z,1.33
2023-04-15T07:10:14.969Z,1.20
2023-04-15T07:12:41.927Z,1.55
2023-04-15T07:15:08.867Z,2.00
2023-04-15T07:17:35.561Z,1.80
2023-04-15T07:20:02.598Z,2.30
2023-04-15T07:22:29.339Z,1.92
2023-04-15T07:24:56.043Z,2.10
2023-04-15T07:27:22.670Z,2.63
2023-04-15T07:29:49.286Z,2.05
2023-04-15T07:32:16.471Z,2.78
2023-04-15T07:34:43.242Z,2.10
2023-04-15T07:37:10.026Z,2.25
2023-04-15T07:39:37.161Z,1.40
2023-04-15T07:42:04.279Z,1.92
2023-04-15T07:44:31.299Z,2.08
2023-04-15T07:46:58.543Z,1.85
2023-04-15T07:49:25.272Z,3.38
2023-04-15T07:51:52.018Z,1.63
2023-04-15T07:54:18.662Z,2.28
2023-04-15T07:56:47.885Z,3.03
2023-04-15T07:59:18.168Z,2.20
2023-04-15T08:01:45.140Z,3.03
2023-04-15T08:04:12.017Z,4.00
2023-04-15T08:06:40.086Z,2.42
2023-04-15T08:09:07.203Z,2.53
2023-04-15T08:11:33.977Z,2.83
2023-04-15T08:14:00.707Z,1.67
2023-04-15T08:16:28.134Z,1.35
2023-04-15T08:18:56.326Z,1.30
2023-04-15T08:21:23.018Z,1.02
2023-04-15T08:23:52.454Z,2.17
2023-04-15T08:26:20.208Z,4.93
2023-04-15T08:28:47.726Z,4.15
2023-04-15T08:31:15.561Z,3.28
2023-04-15T08:33:42.642Z,6.30
2023-04-15T08:36:09.716Z,5.60
2023-04-15T08:38:36.706Z,4.13
2023-04-15T08:41:10.468Z,5.70
2023-04-15T08:43:48.268Z,8.00
2023-04-15T08:46:15.735Z,7.88
2023-04-15T08:48:43.162Z,8.15
2023-04-15T08:51:11.028Z,4.55
2023-04-15T08:53:37.770Z,4.65
2023-04-15T08:56:07.565Z,5.55
2023-04-15T08:58:35.711Z,6.68
2023-04-15T09:01:02.573Z,5.72
2023-04-15T09:03:29.270Z,7.15
2023-04-15T09:05:57.422Z,8.38
2023-04-15T09:08:24.220Z,8.00
2023-04-15T09:10:51.359Z,7.20
2023-04-15T09:13:18.614Z,9.15
2023-04-15T09:15:45.849Z,9.07
2023-04-15T09:18:13.776Z,8.48
2023-04-15T09:20:42.460Z,8.98
2023-04-15T09:23:14.215Z,7.40
2023-04-15T09:25:44.752Z,8.55
2023-04-15T09:28:11.501Z,7.60
2023-04-15T09:30:38.389Z,7.57
2023-04-15T09:33:08.864Z,9.02
2023-04-15T09:35:36.758Z,8.35
2023-04-15T09:38:06.404Z,7.97
2023-04-15T09:40:37.177Z,8.02
2023-04-15T09:43:05.473Z,9.65
2023-04-15T09:45:33.974Z,7.50
2023-04-15T09:48:16.291Z,5.93
2023-04-15T09:50:44.017Z,6.90
2023-04-15T09:53:14.117Z,8.57
2023-04-15T09:55:45.585Z,7.43
2023-04-15T09:58:27.945Z,8.35
2023-04-15T10:00:57.286Z,8.57
2023-04-15T10:03:31.147Z,7.10
2023-04-15T10:05:59.546Z,8.73
2023-04-15T10:08:29.121Z,7.63
2023-04-15T10:10:56.275Z,8.88
2023-04-15T10:13:28.757Z,6.93
2023-04-15T10:16:12.605Z,8.05
2023-04-15T10:18:43.427Z,8.70
2023-04-15T10:21:10.271Z,7.85
2023-04-15T10:23:38.535Z,7.28
2023-04-15T10:26:06.241Z,8.25
2023-04-15T10:28:32.972Z,8.48
2023-04-15T10:31:00.019Z,8.65
2023-04-15T10:33:27.776Z,7.95
2023-04-15T10:35:56.001Z,6.95
2023-04-15T10:38:52.922Z,6.53
2023-04-15T10:41:23.807Z,6.95
2023-04-15T10:44:01.405Z,7.13
2023-04-15T10:46:47.345Z,7.05
2023-04-15T10:49:15.690Z,7.82
2023-04-15T10:51:45.125Z,5.85
2023-04-15T10:54:17.175Z,7.82
2023-04-15T10:56:45.499Z,6.10
2023-04-15T10:59:12.299Z,5.70
2023-04-15T11:02:00.253Z,5.50
2023-04-15T11:04:56.274Z,6.15
2023-04-15T11:07:36.286Z,6.10
2023-04-15T11:10:03.739Z,5.22
2023-04-15T11:12:37.250Z,7.22
2023-04-15T11:15:31.959Z,5.60
2023-04-15T11:18:00.388Z,6.32
2023-04-15T11:20:27.321Z,5.75
2023-04-15T11:23:13.711Z,5.30
2023-04-15T11:25:41.774Z,6.00
2023-04-15T11:28:08.561Z,5.88
2023-04-15T11:30:37.791Z,6.70
2023-04-15T11:33:06.684Z,5.68
2023-04-15T11:35:33.644Z,7.63
2023-04-15T11:38:08.752Z,5.68
2023-04-15T11:40:36.312Z,5.45
2023-04-15T11:43:10.842Z,5.90
2023-04-15T11:45:58.758Z,4.80
2023-04-15T11:48:36.558Z,6.25
2023-04-15T11:51:06.025Z,4.68
2023-04-15T11:53:46.191Z,5.82
2023-04-15T11:56:26.543Z,6.28
2023-04-15T11:58:57.143Z,6.03
2023-04-15T12:01:33.845Z,7.47
2023-04-15T12:04:01.803Z,6.28
2023-04-15T12:06:35.090Z,4.05
2023-04-15T12:09:07.447Z,4.90
2023-04-15T12:11:57.523Z,5.30
2023-04-15T12:14:29.501Z,6.05
2023-04-15T12:19:36.690Z,4.90
2023-04-15T12:22:11.557Z,6.22
2023-04-15T12:24:39.422Z,7.80
2023-04-15T12:27:08.490Z,5.10
2023-04-15T12:29:37.046Z,6.32
2023-04-15T12:32:11.561Z,6.72
2023-04-15T12:34:49.714Z,5.25
2023-04-15T12:39:46.008Z,4.38
2023-04-15T12:42:12.985Z,5.10
2023-04-15T12:44:40.413Z,4.97
2023-04-15T12:47:08.766Z,4.45
2023-04-15T12:49:35.725Z,4.47
2023-04-15T12:52:03.041Z,5.07
2023-04-15T12:54:30.857Z,4.43
2023-04-15T12:56:58.364Z,5.45
2023-04-15T12:59:25.602Z,6.47
2023-04-15T13:01:53.433Z,6.32
2023-04-15T13:04:21.346Z,5.45
2023-04-15T13:06:48.310Z,7.05
2023-04-15T13:09:15.816Z,5.18
2023-04-15T13:11:42.618Z,5.20
2023-04-15T13:14:11.524Z,4.72
2023-04-15T13:16:38.500Z,6.45
2023-04-15T13:19:05.560Z,5.05
2023-04-15T13:21:35.749Z,6.05
2023-04-15T13:24:03.376Z,4.13
2023-04-15T13:26:31.387Z,4.82
2023-04-15T13:28:57.974Z,6.30
2023-04-15T13:31:24.630Z,4.85
2023-04-15T13:33:51.318Z,4.38
2023-04-15T13:36:17.923Z,5.53
2023-04-15T13:38:44.503Z,5.20
2023-04-15T13:41:11.316Z,4.93
2023-04-15T13:43:37.992Z,4.40
2023-04-15T13:46:04.820Z,7.70
2023-04-15T13:48:31.759Z,4.10
2023-04-15T13:50:58.436Z,3.83
2023-04-15T13:53:28.213Z,4.15
2023-04-15T13:56:08.116Z,4.63
2023-04-15T13:58:34.806Z,5.10
2023-04-15T14:01:03.196Z,5.20
2023-04-15T14:03:31.781Z,4.85
2023-04-15T14:05:58.811Z,3.85
2023-04-15T14:08:25.907Z,4.07
2023-04-15T14:10:52.577Z,4.38
2023-04-15T14:13:19.783Z,4.70
2023-04-15T14:15:46.933Z,3.60
2023-04-15T14:18:13.706Z,3.88
2023-04-15T14:20:40.653Z,3.70
2023-04-15T14:23:07.667Z,4.30
2023-04-15T14:25:34.474Z,3.47
2023-04-15T14:28:02.360Z,4.63
2023-04-15T14:30:29.290Z,2.78
2023-04-15T14:32:56.119Z,2.40
2023-04-15T14:35:24.680Z,3.22
2023-04-15T14:37:51.610Z,3.42
2023-04-15T14:40:18.251Z,2.40
2023-04-15T14:42:44.926Z,3.30
2023-04-15T14:45:11.765Z,3.70
2023-04-15T14:47:38.456Z,3.35
2023-04-15T14:50:05.657Z,3.45
2023-04-15T14:52:38.934Z,3.53
2023-04-15T14:55:10.514Z,2.78
2023-04-15T14:57:41.479Z,2.70
2023-04-15T15:00:09.991Z,3.10
2023-04-15T15:02:39.645Z,3.08
2023-04-15T15:05:07.562Z,2.55
2023-04-15T15:07:34.366Z,3.28
2023-04-15T15:10:00.921Z,3.60
2023-04-15T15:12:27.529Z,3.17
2023-04-15T15:14:56.090Z,3.25
2023-04-15T15:17:22.836Z,3.63
2023-04-15T15:19:49.553Z,3.42
2023-04-15T15:22:16.199Z,2.53
2023-04-15T15:24:42.967Z,2.28
2023-04-15T15:27:10.069Z,2.55
2023-04-15T15:29:38.157Z,2.30
2023-04-15T15:32:04.959Z,2.15
2023-04-15T15:34:31.582Z,2.58
2023-04-15T15:37:00.447Z,1.88
2023-04-15T15:39:27.861Z,1.58
2023-04-15T15:41:54.701Z,1.70
2023-04-15T15:44:21.407Z,1.73
2023-04-15T15:46:48.040Z,2.08
2023-04-15T15:49:14.776Z,1.85
2023-04-15T15:51:41.479Z,2.20
2023-04-15T15:54:08.169Z,2.72
2023-04-15T15:56:35.230Z,1.80
2023-04-15T15:59:01.936Z,1.40
2023-04-15T16:01:28.743Z,2.78
2023-04-15T16:03:58.277Z,1.90
2023-04-15T16:06:25.086Z,1.58
2023-04-15T16:08:51.670Z,1.92
2023-04-15T16:11:18.282Z,1.85
2023-04-15T16:13:44.893Z,2.03
2023-04-15T16:16:11.651Z,1.48
2023-04-15T16:18:38.338Z,1.70
2023-04-15T16:21:05.700Z,1.85
2023-04-15T16:23:32.342Z,2.03
2023-04-15T16:25:59.035Z,1.73
2023-04-15T16:28:27.224Z,1.20
2023-04-15T16:30:54.819Z,2.47
2023-04-15T16:33:21.536Z,1.60
2023-04-15T16:35:48.222Z,2.08
2023-04-15T16:38:14.908Z,1.52
2023-04-15T16:40:41.475Z,1.73
2023-04-15T16:43:11.165Z,2.15
2023-04-15T16:45:38.040Z,1.45
2023-04-15T16:48:05.021Z,1.88
2023-04-15T16:50:31.836Z,1.60
2023-04-15T16:52:58.426Z,1.40
2023-04-15T16:55:25.428Z,1.40
2023-04-15T16:58:02.319Z,2.30
2023-04-15T17:00:31.268Z,1.88
2023-04-15T17:02:58.520Z,1.67
2023-04-15T17:05:27.622Z,1.80
2023-04-15T17:07:54.447Z,2.05
2023-04-15T17:10:21.127Z,1.85
2023-04-15T17:12:47.770Z,1.48
2023-04-15T17:15:14.435Z,1.98
2023-04-15T17:17:41.141Z,1.70
2023-04-15T17:20:08.120Z,1.33
2023-04-15T17:22:34.933Z,1.27
2023-04-15T17:25:01.564Z,2.08
2023-04-15T17:27:29.013Z,2.17
2023-04-15T17:29:56.164Z,2.28
2023-04-15T17:32:23.889Z,2.13
2023-04-15T17:34:51.390Z,1.90
2023-04-15T17:37:18.702Z,1.92
2023-04-15T17:39:45.594Z,2.00
2023-04-15T17:42:12.925Z,2.03
2023-04-15T17:44:39.989Z,1.73
2023-04-15T17:47:06.960Z,2.08
2023-04-15T17:49:34.346Z,2.03
2023-04-15T17:52:01.330Z,2.20
2023-04-15T17:54:28.147Z,2.55
2023-04-15T17:56:54.943Z,2.22
2023-04-15T17:59:21.646Z,2.30
2023-04-15T18:01:48.487Z,1.80
2023-04-15T18:04:15.801Z,1.90
2023-04-15T18:06:42.613Z,2.83
2023-04-15T18:09:09.225Z,1.88
2023-04-15T18:11:35.921Z,2.05
2023-04-15T18:14:04.245Z,2.28
2023-04-15T18:16:31.611Z,1.65
2023-04-15T18:19:00.120Z,2.10
2023-04-15T18:21:27.144Z,2.20
2023-04-15T18:23:53.900Z,2.33
2023-04-15T18:26:21.884Z,2.30
2023-04-15T18:28:48.603Z,2.03
2023-04-15T18:31:15.744Z,1.98
2023-04-15T18:33:42.481Z,1.98
2023-04-15T18:36:10.358Z,1.90
2023-04-15T18:38:37.065Z,2.05
2023-04-15T18:41:05.500Z,1.85
2023-04-15T18:43:32.513Z,2.28
2023-04-15T18:46:00.169Z,1.33
2023-04-15T18:48:27.087Z,2.13
2023-04-15T18:50:54.303Z,2.50
2023-04-15T18:53:21.605Z,2.05
2023-04-15T18:55:48.429Z,1.70
2023-04-15T18:58:15.689Z,1.65
2023-04-15T19:00:43.889Z,1.98
2023-04-15T19:03:11.689Z,2.40
2023-04-15T19:05:38.691Z,1.90
2023-04-15T19:08:05.532Z,2.00
2023-04-15T19:10:32.215Z,3.08
2023-04-15T19:12:58.872Z,2.55
2023-04-15T19:15:25.500Z,1.55
2023-04-15T19:17:52.156Z,2.95
2023-04-15T19:20:18.863Z,1.70
2023-04-15T19:22:46.278Z,2.38
2023-04-15T19:25:13.033Z,2.15
2023-04-15T19:27:39.717Z,2.10
2023-04-15T19:30:07.805Z,2.38
2023-04-15T19:32:36.283Z,2.10
2023-04-15T19:35:03.237Z,1.90
2023-04-15T19:37:30.202Z,2.28
2023-04-15T19:39:56.885Z,2.50
2023-04-15T19:42:23.484Z,2.83
2023-04-15T19:44:50.080Z,2.70
2023-04-15T19:47:16.820Z,2.13
2023-04-15T19:49:43.652Z,2.10
2023-04-15T19:52:10.298Z,2.88
2023-04-15T19:54:37.173Z,2.25
2023-04-15T19:57:03.839Z,2.35
2023-04-15T19:59:30.485Z,2.58
2023-04-15T20:01:57.368Z,2.45
2023-04-15T20:04:24.131Z,3.22
2023-04-15T20:06:50.957Z,1.90
2023-04-15T20:09:17.607Z,2.35
2023-04-15T20:12:46.927Z,1.75
2023-04-15T20:14:31.020Z,2.13
2023-04-15T20:16:57.643Z,2.30
2023-04-15T20:19:24.273Z,1.65
2023-04-15T20:21:52.519Z,3.17
2023-04-15T20:24:20.493Z,2.60
2023-04-15T20:26:47.369Z,2.05
2023-04-15T20:29:14.149Z,2.55
2023-04-15T20:31:40.861Z,2.55
2023-04-15T20:34:08.840Z,2.03
2023-04-15T20:36:37.365Z,1.73
2023-04-15T20:39:04.287Z,2.65
2023-04-15T20:41:31.245Z,2.00
2023-04-15T20:43:57.931Z,2.25
2023-04-15T20:46:26.621Z,2.15
2023-04-15T20:48:54.173Z,1.90
2023-04-15T20:51:23.501Z,2.22
2023-04-15T20:53:50.250Z,2.67
2023-04-15T20:56:16.957Z,2.40
2023-04-15T20:58:43.620Z,1.90
2023-04-15T21:01:10.445Z,1.92
2023-04-15T21:03:37.296Z,2.65
2023-04-15T21:06:04.048Z,2.85
2023-04-15T21:08:31.543Z,2.00
2023-04-15T21:10:58.533Z,2.72
2023-04-15T21:13:25.157Z,2.50
2023-04-15T21:15:54.300Z,2.72
2023-04-15T21:18:21.852Z,2.80
2023-04-15T21:20:58.497Z,2.15
2023-04-15T21:23:25.834Z,2.65
2023-04-15T21:25:52.467Z,3.08
2023-04-15T21:28:19.008Z,2.60
2023-04-15T21:30:46.225Z,2.15
2023-04-15T21:33:12.870Z,2.65
2023-04-15T21:35:39.752Z,1.92
2023-04-15T21:38:06.599Z,1.88
2023-04-15T21:40:33.335Z,2.15
2023-04-15T21:42:59.998Z,1.85
2023-04-15T21:45:27.057Z,2.60
2023-04-15T21:48:01.243Z,2.28
2023-04-15T21:50:36.492Z,1.90
2023-04-15T21:53:03.923Z,2.08
2023-04-15T21:55:30.581Z,2.22
2023-04-15T21:57:57.145Z,1.75
2023-04-15T22:00:24.317Z,2.50
2023-04-15T22:02:51.679Z,2.85
2023-04-15T22:05:18.503Z,2.35
2023-04-15T22:07:45.184Z,2.38
2023-04-15T22:10:11.876Z,1.75
2023-04-15T22:12:41.892Z,1.83
2023-04-15T22:15:09.006Z,1.88
2023-04-15T22:17:35.786Z,1.80
2023-04-15T22:20:02.849Z,1.73
2023-04-15T22:22:43.375Z,2.08
2023-04-15T22:25:11.427Z,2.22
2023-04-15T22:27:38.207Z,1.90
2023-04-15T22:30:05.659Z,2.20
2023-04-15T22:32:32.323Z,1.30
2023-04-15T22:34:58.999Z,2.40
2023-04-15T22:37:25.643Z,1.95
2023-04-15T22:39:52.266Z,2.13
2023-04-15T22:42:18.888Z,1.98
2023-04-15T22:44:45.690Z,2.30
2023-04-15T22:47:12.341Z,2.40
2023-04-15T22:49:39.518Z,2.03
2023-04-15T22:52:07.034Z,2.22
2023-04-15T22:54:34.562Z,2.05
2023-04-15T22:57:02.274Z,2.65
2023-04-15T22:59:28.956Z,1.83
2023-04-15T23:01:56.229Z,2.05
2023-04-15T23:04:27.546Z,2.10
2023-04-15T23:06:54.615Z,2.15
2023-04-15T23:09:21.518Z,2.78
2023-04-15T23:11:48.243Z,2.00
2023-04-15T23:14:14.853Z,1.95
2023-04-15T23:16:41.692Z,2.00
2023-04-15T23:19:08.885Z,1.85
2023-04-15T23:21:35.880Z,2.00
2023-04-15T23:24:02.559Z,2.10
2023-04-15T23:26:29.402Z,2.13
2023-04-15T23:28:56.157Z,1.92
2023-04-15T23:31:22.913Z,2.05
2023-04-15T23:33:49.560Z,2.00
2023-04-15T23:36:16.228Z,1.70
2023-04-15T23:38:42.841Z,2.50
2023-04-15T23:41:11.915Z,2.20
2023-04-15T23:43:38.676Z,1.92
2023-04-15T23:46:05.337Z,2.40
2023-04-15T23:48:31.998Z,2.38
2023-04-15T23:50:58.884Z,1.80
2023-04-15T23:53:25.548Z,1.67
2023-04-15T23:55:52.158Z,1.40
2023-04-15T23:58:18.826Z,1.88
